Time;durP1;ratioP1;P1;durP2;ratioP2;P2;SDS_P1;SDS_P2;PMS_P1;PMS_P2;Temp;Humidity;BMP_temperature;BMP_pressure;BME280_temperature;BME280_humidity;BME280_pressure;Samples;Min_cycle;Max_cycle;Signal;HPM_P1;HPM_P2
2022/04/05 00:02:18;;;;;;;19.35;11.25;;;;;;;3.00;94.67;99659.75;4901674;29;20554;-81
2022/04/05 00:04:46;;;;;;;18.70;11.20;;;;;;;2.96;94.82;99656.34;4901301;29;20080;-80
2022/04/05 00:07:15;;;;;;;20.30;11.00;;;;;;;2.98;95.24;99658.91;4901388;29;20073;-78
2022/04/05 00:09:47;;;;;;;16.33;10.75;;;;;;;2.90;95.45;99655.75;4901148;29;20053;-87
2022/04/05 00:12:15;;;;;;;15.77;10.40;;;;;;;2.84;96.01;99657.69;4901273;29;20048;-87
2022/04/05 00:14:43;;;;;;;18.38;11.05;;;;;;;2.79;96.40;99654.34;4901162;29;20069;-87
2022/04/05 00:17:11;;;;;;;17.77;10.55;;;;;;;2.91;95.52;99649.56;4901302;29;20119;-86
2022/04/05 00:19:39;;;;;;;15.23;10.18;;;;;;;2.84;95.47;99655.03;4901103;29;20048;-85
2022/04/05 00:22:07;;;;;;;15.15;9.60;;;;;;;2.86;95.05;99650.56;4901269;29;20049;-87
2022/04/05 00:24:36;;;;;;;16.42;10.57;;;;;;;2.97;93.15;99646.66;4901194;29;20469;-87
2022/04/05 00:27:05;;;;;;;18.27;10.00;;;;;;;2.96;93.16;99639.69;4901287;29;20052;-78
2022/04/05 00:29:33;;;;;;;14.85;9.73;;;;;;;3.00;92.25;99641.28;4901158;29;20463;-79
2022/04/05 00:32:02;;;;;;;14.48;9.88;;;;;;;2.99;92.46;99634.28;4900905;29;20044;-78
2022/04/05 00:34:30;;;;;;;16.58;10.65;;;;;;;2.98;90.72;99637.84;4901081;29;20456;-80
2022/04/05 00:36:58;;;;;;;15.35;10.15;;;;;;;2.93;90.70;99631.91;4900860;29;20056;-82
2022/04/05 00:39:28;;;;;;;18.02;10.00;;;;;;;3.09;89.79;99631.25;4901019;29;20065;-82
2022/04/05 00:41:57;;;;;;;16.88;10.55;;;;;;;3.23;88.18;99630.69;4900851;29;20051;-82
2022/04/05 00:44:26;;;;;;;19.38;9.82;;;;;;;3.17;89.09;99625.66;4900743;29;20413;-81
2022/04/05 00:46:55;;;;;;;16.27;10.32;;;;;;;3.22;88.54;99628.13;4902085;29;20048;-83
2022/04/05 00:49:30;;;;;;;17.20;10.32;;;;;;;3.18;88.70;99624.72;4904211;29;20068;-84
2022/04/05 00:51:59;;;;;;;15.57;10.10;;;;;;;3.28;88.32;99630.50;4902280;29;20104;-81
2022/04/05 00:54:29;;;;;;;17.35;10.63;;;;;;;3.31;87.79;99633.03;4900525;29;20048;-86
2022/04/05 00:56:58;;;;;;;15.63;10.30;;;;;;;3.24;88.49;99627.13;4900422;29;20053;-87
2022/04/05 00:59:32;;;;;;;17.40;10.30;;;;;;;3.32;87.67;99622.41;4899881;29;20068;-84
2022/04/05 01:02:02;;;;;;;15.80;9.68;;;;;;;3.25;88.25;99618.31;4900456;29;20065;-85
2022/04/05 01:04:31;;;;;;;17.27;10.60;;;;;;;3.35;87.67;99617.00;4900506;29;20049;-84
2022/04/05 01:07:00;;;;;;;19.35;11.18;;;;;;;3.42;87.02;99612.34;4900485;29;20044;-84
2022/04/05 01:09:29;;;;;;;17.00;9.95;;;;;;;3.31;87.93;99604.88;4900483;29;20045;-85
2022/04/05 01:11:57;;;;;;;16.85;10.57;;;;;;;3.22;88.62;99610.53;4900044;29;20044;-86
2022/04/05 01:14:27;;;;;;;17.05;10.88;;;;;;;3.20;88.75;99609.75;4900251;29;20493;-84
2022/04/05 01:16:55;;;;;;;15.48;10.40;;;;;;;3.15;90.45;99614.31;4900268;29;20044;-80
2022/04/05 01:19:25;;;;;;;16.02;10.50;;;;;;;3.30;89.30;99616.34;4900353;29;20052;-83
2022/04/05 01:21:53;;;;;;;15.50;10.63;;;;;;;3.24;88.05;99613.94;4899897;29;20059;-82
2022/04/05 01:24:23;;;;;;;16.90;10.93;;;;;;;3.29;87.47;99617.28;4900175;29;20083;-80
2022/04/05 01:26:53;;;;;;;17.85;10.88;;;;;;;3.37;87.09;99615.16;4900137;29;20060;-81
2022/04/05 01:29:23;;;;;;;16.65;10.60;;;;;;;3.34;87.50;99622.34;4883342;29;20059;-82
2022/04/05 01:31:54;;;;;;;16.60;11.23;;;;;;;3.36;86.73;99607.31;4899820;29;20044;-85
2022/04/05 01:34:25;;;;;;;16.60;11.07;;;;;;;3.28;87.17;99618.19;4900489;29;20494;-82
2022/04/05 01:36:55;;;;;;;17.67;10.77;;;;;;;3.37;86.51;99607.25;4899863;29;20073;-82
2022/04/05 01:39:27;;;;;;;18.95;11.40;;;;;;;3.35;86.85;99608.25;4899833;29;20123;-83
2022/04/05 01:41:57;;;;;;;17.05;11.20;;;;;;;3.53;84.60;99610.13;4899766;29;20048;-83
2022/04/05 01:44:27;;;;;;;19.20;11.20;;;;;;;3.54;84.08;99606.56;4899927;29;20128;-80
2022/04/05 01:46:56;;;;;;;20.02;11.82;;;;;;;3.45;85.17;99613.06;4899610;29;20049;-81
2022/04/05 01:49:24;;;;;;;18.58;11.38;;;;;;;3.57;85.01;99602.94;4899578;29;20490;-87
2022/04/05 01:51:53;;;;;;;17.35;10.90;;;;;;;3.48;85.31;99606.84;4899413;29;20060;-87
2022/04/05 01:54:21;;;;;;;17.65;11.85;;;;;;;3.55;85.16;99603.00;4899773;29;20461;-88
2022/04/05 01:56:52;;;;;;;18.58;12.23;;;;;;;3.56;84.62;99598.59;4899296;29;20407;-87
2022/04/05 01:59:22;;;;;;;17.88;11.48;;;;;;;3.50;84.77;99598.84;4899719;29;20045;-86
2022/04/05 02:01:50;;;;;;;18.90;11.55;;;;;;;3.45;85.15;99594.63;4899181;29;20051;-85
2022/04/05 02:04:18;;;;;;;18.77;11.75;;;;;;;3.44;85.81;99587.63;4899314;29;20051;-86
2022/04/05 02:06:47;;;;;;;18.20;11.88;;;;;;;3.55;85.29;99583.69;4899272;29;20055;-85
2022/04/05 02:09:17;;;;;;;18.40;11.90;;;;;;;3.52;85.02;99582.03;4899420;29;20044;-90
2022/04/05 02:11:47;;;;;;;20.95;11.13;;;;;;;3.48;85.64;99566.44;4898743;29;20562;-83
2022/04/05 02:14:17;;;;;;;17.80;11.02;;;;;;;3.64;84.35;99576.25;4899332;29;20044;-84
2022/04/05 02:16:46;;;;;;;16.05;10.70;;;;;;;3.58;84.54;99578.31;4899144;29;20119;-85
2022/04/05 02:19:14;;;;;;;17.83;11.23;;;;;;;3.65;84.28;99577.09;4899098;29;20089;-87
2022/04/05 02:21:42;;;;;;;18.63;11.43;;;;;;;3.56;84.69;99577.50;4882640;29;20062;-87
2022/04/05 02:24:10;;;;;;;18.00;10.52;;;;;;;3.57;84.59;99573.94;4899126;29;20096;-87
2022/04/05 02:26:39;;;;;;;18.17;10.75;;;;;;;3.56;84.76;99577.50;4899285;29;20049;-85
2022/04/05 02:29:07;;;;;;;16.05;10.82;;;;;;;3.55;85.05;99574.00;4898943;29;20131;-88
2022/04/05 02:31:37;;;;;;;15.93;10.10;;;;;;;3.66;84.22;99563.00;4898910;29;20076;-87
2022/04/05 02:34:05;;;;;;;19.70;11.52;;;;;;;3.72;83.20;99565.38;4898749;29;20144;-88
2022/04/05 02:36:33;;;;;;;17.33;10.65;;;;;;;3.63;83.80;99557.84;4898907;29;20048;-87
2022/04/05 02:39:01;;;;;;;16.83;10.48;;;;;;;3.63;83.64;99560.50;4898451;29;20112;-86
2022/04/05 02:41:35;;;;;;;16.98;10.45;;;;;;;3.59;84.02;99566.84;4899203;29;20044;-86
2022/04/05 02:44:03;;;;;;;17.10;11.27;;;;;;;3.58;84.57;99555.44;4898390;29;20131;-79
2022/04/05 02:46:31;;;;;;;18.48;11.07;;;;;;;3.56;84.35;99557.25;4898510;29;20074;-79
2022/04/05 02:49:01;;;;;;;17.33;10.68;;;;;;;3.57;84.43;99558.09;4881662;29;20100;-79
2022/04/05 02:51:30;;;;;;;17.15;10.60;;;;;;;3.51;84.53;99555.75;4898537;29;20055;-78
2022/04/05 02:53:59;;;;;;;17.42;10.93;;;;;;;3.52;85.27;99546.91;4898371;29;20044;-79
2022/04/05 02:56:27;;;;;;;18.38;10.30;;;;;;;3.50;85.48;99546.13;4898362;29;20123;-78
2022/04/05 02:58:55;;;;;;;19.30;11.05;;;;;;;3.59;85.03;99540.47;4898158;29;20044;-79
2022/04/05 03:01:24;;;;;;;17.38;11.43;;;;;;;3.58;85.20;99546.66;4898415;29;20454;-79
2022/04/05 03:03:52;;;;;;;17.65;11.48;;;;;;;3.45;86.19;99544.53;4898155;29;20064;-82
2022/04/05 03:06:22;;;;;;;19.63;11.82;;;;;;;3.42;86.33;99549.94;4898252;29;20044;-80
2022/04/05 03:08:52;;;;;;;17.20;11.55;;;;;;;3.43;86.94;99548.16;4898105;29;20392;-83
2022/04/05 03:11:22;;;;;;;19.13;11.57;;;;;;;3.51;86.21;99540.78;4898343;29;20426;-84
2022/04/05 03:13:50;;;;;;;18.67;11.50;;;;;;;3.52;86.98;99541.63;4898272;29;20045;-83
2022/04/05 03:16:19;;;;;;;19.33;11.80;;;;;;;3.42;87.68;99539.38;4898250;29;20048;-81
2022/04/05 03:18:47;;;;;;;18.70;11.65;;;;;;;3.42;88.10;99539.38;4898177;29;20080;-83
2022/04/05 03:21:16;;;;;;;19.65;12.15;;;;;;;3.42;88.10;99533.25;4897973;29;20049;-82
2022/04/05 03:23:45;;;;;;;19.00;11.65;;;;;;;3.37;88.18;99538.72;4897924;29;20072;-83
2022/04/05 03:26:13;;;;;;;19.25;11.73;;;;;;;3.36;88.02;99534.38;4898057;29;20237;-83
2022/04/05 03:28:42;;;;;;;22.27;12.25;;;;;;;3.39;88.48;99531.63;4898289;29;20041;-83
2022/04/05 03:31:10;;;;;;;20.20;12.65;;;;;;;3.36;88.21;99529.09;4898018;29;20455;-82
2022/04/05 03:33:39;;;;;;;20.85;12.45;;;;;;;3.39;88.52;99528.97;4897861;29;20455;-83
2022/04/05 03:36:07;;;;;;;21.38;11.63;;;;;;;3.40;88.22;99514.88;4897620;29;20041;-82
2022/04/05 03:38:35;;;;;;;19.85;11.57;;;;;;;3.47;87.30;99509.31;4897907;29;20072;-86
2022/04/05 03:41:07;;;;;;;19.20;11.75;;;;;;;3.50;87.50;99503.94;4897842;29;20051;-86
2022/04/05 03:43:37;;;;;;;20.92;12.32;;;;;;;3.54;87.14;99503.72;4897933;29;20049;-86
2022/04/05 03:46:05;;;;;;;20.40;12.73;;;;;;;3.51;87.83;99508.28;4897620;29;20124;-86
2022/04/05 03:48:34;;;;;;;20.08;12.23;;;;;;;3.50;87.99;99509.22;4898003;29;20056;-86
2022/04/05 03:51:08;;;;;;;19.55;11.38;;;;;;;3.49;87.78;99504.88;4897950;29;20096;-88
2022/04/05 03:53:36;;;;;;;18.05;11.63;;;;;;;3.56;86.78;99498.38;4898081;29;20049;-86
2022/04/05 03:56:05;;;;;;;20.38;12.00;;;;;;;3.64;86.20;99509.44;4898231;29;20055;-86
2022/04/05 03:58:34;;;;;;;19.55;12.23;;;;;;;3.63;86.03;99508.59;4881459;29;20491;-85
2022/04/05 04:01:03;;;;;;;21.23;12.40;;;;;;;3.63;86.32;99513.03;4899782;29;20128;-86
2022/04/05 04:03:31;;;;;;;20.88;11.93;;;;;;;3.67;85.70;99511.97;4902692;29;20040;-88
2022/04/05 04:05:59;;;;;;;16.15;11.23;;;;;;;3.64;86.20;99512.09;4897368;29;20127;-83
2022/04/05 04:08:28;;;;;;;18.08;11.35;;;;;;;3.69;85.99;99510.13;4880783;29;20112;-82
2022/04/05 04:10:56;;;;;;;17.80;10.75;;;;;;;3.64;86.30;99506.81;4897673;29;20049;-83
2022/04/05 04:13:24;;;;;;;22.10;12.77;;;;;;;3.59;86.54;99514.94;4897646;29;20056;-79
2022/04/05 04:15:56;;;;;;;20.85;12.95;;;;;;;3.61;87.07;99510.44;4897213;29;20399;-80
2022/04/05 04:18:24;;;;;;;17.63;11.40;;;;;;;3.69;86.00;99510.13;4897565;29;20048;-80
2022/04/05 04:20:52;;;;;;;17.67;11.73;;;;;;;3.65;86.46;99503.25;4897432;29;20052;-79
2022/04/05 04:23:20;;;;;;;19.67;11.95;;;;;;;3.63;86.88;99505.09;4897546;29;20051;-79
2022/04/05 04:25:49;;;;;;;18.00;11.60;;;;;;;3.60;86.77;99506.09;4897447;29;20045;-78
2022/04/05 04:28:17;;;;;;;18.70;11.95;;;;;;;3.63;87.13;99510.38;4897304;29;20071;-79
2022/04/05 04:30:46;;;;;;;18.52;11.20;;;;;;;3.69;85.68;99512.75;4897652;29;20057;-82
2022/04/05 04:33:15;;;;;;;20.08;12.00;;;;;;;3.60;86.33;99513.16;4897571;29;20506;-87
2022/04/05 04:35:45;;;;;;;17.48;11.43;;;;;;;3.62;86.02;99508.66;4903572;29;20466;-86
2022/04/05 04:38:15;;;;;;;20.63;11.93;;;;;;;3.65;86.54;99506.75;4916033;29;20392;-85
2022/04/05 04:40:46;;;;;;;20.55;12.00;;;;;;;3.64;86.27;99509.44;4902717;29;20048;-87
2022/04/05 04:43:15;;;;;;;18.95;11.32;;;;;;;3.64;86.29;99517.38;4901079;29;20454;-88
2022/04/05 04:45:44;;;;;;;21.15;12.68;;;;;;;3.73;85.91;99512.53;4900756;29;20072;-89
2022/04/05 04:48:12;;;;;;;19.23;12.13;;;;;;;3.70;85.76;99522.38;4901015;29;20045;-87
2022/04/05 04:50:42;;;;;;;21.15;12.57;;;;;;;3.68;85.48;99525.09;4901039;29;20450;-85
2022/04/05 04:53:10;;;;;;;21.10;12.10;;;;;;;3.68;85.80;99524.25;4900615;29;20044;-86
2022/04/05 04:55:38;;;;;;;22.85;13.77;;;;;;;3.82;85.08;99524.47;4900806;29;20052;-90
2022/04/05 04:58:26;;;;;;;22.35;13.70;;;;;;;3.82;85.09;99526.25;4900938;29;20124;-76
2022/04/05 05:00:55;;;;;;;27.55;15.98;;;;;;;3.87;84.84;99519.88;4900495;29;20056;-79
2022/04/05 05:03:23;;;;;;;34.88;18.77;;;;;;;3.81;85.21;99525.41;4900540;29;20066;-78
2022/04/05 05:05:54;;;;;;;40.70;19.80;;;;;;;4.03;84.10;99520.03;4900511;29;20478;-85
2022/04/05 05:08:22;;;;;;;36.63;19.38;;;;;;;4.16;83.13;99515.06;4900640;29;20047;-81
2022/04/05 05:10:50;;;;;;;28.88;16.17;;;;;;;4.48;81.09;99505.63;4900421;29;20135;-85
2022/04/05 05:13:20;;;;;;;24.00;14.50;;;;;;;4.39;81.00;99514.84;4899880;29;20099;-83
2022/04/05 05:15:50;;;;;;;25.27;12.45;;;;;;;4.42;80.37;99527.91;4900210;29;20483;-83
2022/04/05 05:18:18;;;;;;;19.95;12.35;;;;;;;4.48;80.68;99511.78;4900070;29;20036;-85
2022/04/05 05:20:46;;;;;;;19.98;12.57;;;;;;;4.65;79.82;99518.06;4900213;29;20044;-85
2022/04/05 05:23:16;;;;;;;21.08;12.82;;;;;;;4.72;79.62;99524.75;4900153;29;20072;-83
2022/04/05 05:25:45;;;;;;;22.20;13.00;;;;;;;4.91;78.46;99516.78;4900034;29;20052;-79
2022/04/05 05:28:13;;;;;;;23.13;13.35;;;;;;;5.08;77.94;99517.69;4899686;29;20044;-76
2022/04/05 05:30:41;;;;;;;22.38;12.20;;;;;;;5.18;77.32;99507.50;4899663;29;20463;-77
2022/04/05 05:33:10;;;;;;;19.35;12.05;;;;;;;5.24;76.91;99506.34;4899278;29;20097;-78
2022/04/05 05:35:38;;;;;;;19.90;12.60;;;;;;;5.34;76.56;99508.47;4899609;29;20204;-78
2022/04/05 05:38:06;;;;;;;19.63;12.63;;;;;;;5.45;76.34;99498.19;4899616;29;20123;-81
2022/04/05 05:40:36;;;;;;;22.30;12.43;;;;;;;5.37;76.37;99502.16;4899651;29;20045;-78
2022/04/05 05:43:05;;;;;;;18.33;11.65;;;;;;;5.50;75.78;99500.59;4899297;29;20096;-78
2022/04/05 05:45:35;;;;;;;21.45;12.68;;;;;;;5.43;75.62;99496.56;4899242;29;20052;-78
2022/04/05 05:48:04;;;;;;;20.95;12.73;;;;;;;5.32;76.45;99498.91;4899202;29;20049;-79
2022/04/05 05:50:33;;;;;;;17.95;12.45;;;;;;;5.28;76.37;99510.53;4899381;29;20052;-79
2022/04/05 05:53:01;;;;;;;20.63;12.18;;;;;;;5.18;77.89;99512.78;4898049;29;20131;-78
2022/04/05 05:55:29;;;;;;;19.25;12.25;;;;;;;5.25;77.23;99502.78;4899086;29;20044;-78
2022/04/05 05:58:02;;;;;;;21.15;12.32;;;;;;;5.28;77.54;99507.91;4899012;29;20052;-77
2022/04/05 06:00:31;;;;;;;21.85;12.90;;;;;;;5.28;78.08;99515.81;4899404;29;20065;-77
2022/04/05 06:03:01;;;;;;;20.73;12.65;;;;;;;5.27;78.33;99516.75;4899150;29;20076;-78
2022/04/05 06:05:30;;;;;;;22.00;13.05;;;;;;;5.40;77.16;99526.66;4899092;29;20144;-77
2022/04/05 06:07:59;;;;;;;23.08;13.30;;;;;;;5.48;76.75;99528.91;4899029;29;20071;-79
2022/04/05 06:10:27;;;;;;;20.73;13.20;;;;;;;5.61;76.54;99524.72;4898991;29;20044;-77
2022/04/05 06:12:57;;;;;;;21.35;13.00;;;;;;;5.65;76.65;99531.53;4898872;29;20083;-78
2022/04/05 06:15:27;;;;;;;26.60;13.77;;;;;;;5.82;76.18;99535.13;4898552;29;20056;-76
2022/04/05 06:17:57;;;;;;;22.17;12.93;;;;;;;5.90;75.35;99539.13;4898777;29;20040;-78
2022/04/05 06:20:27;;;;;;;20.08;12.38;;;;;;;6.15;73.83;99537.81;4898477;29;20080;-80
2022/04/05 06:22:57;;;;;;;20.10;11.60;;;;;;;6.31;73.50;99536.91;4898451;29;20049;-76
2022/04/05 06:25:28;;;;;;;21.02;12.93;;;;;;;6.48;73.08;99524.56;4898647;29;20063;-75
2022/04/05 06:27:57;;;;;;;21.08;12.18;;;;;;;6.64;71.50;99528.03;4899231;29;20135;-76
2022/04/05 06:30:26;;;;;;;19.98;12.57;;;;;;;6.78;71.81;99527.28;4898441;29;20533;-77
2022/04/05 06:33:05;;;;;;;19.50;12.40;;;;;;;7.21;70.16;99531.00;4898680;29;20060;-81
2022/04/05 06:35:34;;;;;;;19.48;12.32;;;;;;;7.59;67.95;99530.56;4898737;29;20469;-79
2022/04/05 06:38:02;;;;;;;20.33;12.43;;;;;;;7.66;67.58;99526.59;4898946;29;20128;-83
2022/04/05 06:40:30;;;;;;;18.85;11.20;;;;;;;7.77;66.31;99508.22;4900433;29;20059;-83
2022/04/05 06:42:58;;;;;;;17.08;10.75;;;;;;;7.88;65.48;99515.53;4898998;29;20108;-81
2022/04/05 06:45:28;;;;;;;18.67;11.45;;;;;;;7.96;65.99;99518.56;4898298;29;20052;-83
2022/04/05 06:47:57;;;;;;;17.15;10.88;;;;;;;8.00;65.58;99510.31;4898387;29;20377;-86
2022/04/05 06:50:25;;;;;;;17.70;11.38;;;;;;;7.90;66.31;99509.16;4898229;29;20083;-78
2022/04/05 06:52:55;;;;;;;18.88;11.40;;;;;;;7.94;66.12;99499.25;4898607;29;20066;-76
2022/04/05 06:55:23;;;;;;;21.02;11.35;;;;;;;8.07;65.58;99494.88;4898121;29;20088;-79
2022/04/05 06:57:52;;;;;;;21.65;11.50;;;;;;;8.06;65.76;99503.78;4897110;29;20564;-77
2022/04/05 07:00:23;;;;;;;19.45;11.18;;;;;;;8.19;66.11;99503.88;4897801;29;20132;-78
2022/04/05 07:02:53;;;;;;;18.55;11.40;;;;;;;8.19;64.89;99504.72;4898287;29;20054;-77
2022/04/05 07:05:23;;;;;;;17.75;10.90;;;;;;;8.48;64.56;99500.28;4898055;29;20055;-78
2022/04/05 07:07:52;;;;;;;18.83;10.50;;;;;;;8.50;64.73;99503.72;4898093;29;20053;-78
2022/04/05 07:10:21;;;;;;;19.38;10.98;;;;;;;8.35;64.06;99515.28;4897700;29;20072;-79
2022/04/05 07:12:49;;;;;;;16.65;10.32;;;;;;;8.26;64.73;99510.53;4897761;29;20139;-78
2022/04/05 07:15:17;;;;;;;18.70;11.30;;;;;;;8.28;64.34;99504.16;4897634;29;20076;-76
2022/04/05 07:17:46;;;;;;;21.73;10.88;;;;;;;8.52;64.03;99491.16;4881259;29;20455;-77
2022/04/05 07:20:34;;;;;;;16.52;10.73;;;;;;;8.46;63.99;99496.88;4897541;29;20443;-78
2022/04/05 07:23:02;;;;;;;16.88;10.77;;;;;;;8.31;65.43;99508.44;4897425;29;20052;-77
2022/04/05 07:25:31;;;;;;;15.25;9.93;;;;;;;8.35;65.09;99496.69;4897140;29;20128;-77
2022/04/05 07:28:02;;;;;;;15.75;10.40;;;;;;;8.50;64.88;99503.72;4897319;29;20049;-78
2022/04/05 07:30:30;;;;;;;11.73;8.80;;;;;;;8.62;62.30;99493.25;4897105;29;20081;-76
2022/04/05 07:32:58;;;;;;;17.08;9.10;;;;;;;8.83;61.85;99492.69;4897656;29;20056;-78
2022/04/05 07:35:26;;;;;;;14.50;9.73;;;;;;;9.12;61.55;99487.28;4897343;29;20044;-76
2022/04/05 07:37:56;;;;;;;15.68;9.45;;;;;;;9.30;60.62;99488.72;4897516;29;20053;-77
2022/04/05 07:40:27;;;;;;;14.57;8.50;;;;;;;9.38;59.14;99490.88;4897572;29;20045;-78
2022/04/05 07:42:56;;;;;;;12.93;8.65;;;;;;;9.51;58.34;99489.06;4897443;29;20387;-77
2022/04/05 07:45:24;;;;;;;13.80;8.13;;;;;;;9.58;57.37;99493.03;4897404;29;20517;-76
2022/04/05 07:47:52;;;;;;;12.45;8.20;;;;;;;9.77;57.07;99486.47;4897911;29;20075;-77
2022/04/05 07:50:21;;;;;;;15.90;8.50;;;;;;;9.87;57.08;99484.84;4897473;29;20049;-78
2022/04/05 07:52:51;;;;;;;14.35;7.90;;;;;;;10.01;56.42;99500.72;4897622;29;20048;-77
2022/04/05 07:55:20;;;;;;;12.18;8.95;;;;;;;10.11;56.32;99500.94;4897694;29;20049;-77
2022/04/05 07:57:49;;;;;;;12.05;7.70;;;;;;;10.09;55.81;99505.53;4897538;29;20045;-76
2022/04/05 08:00:18;;;;;;;15.48;9.13;;;;;;;10.14;56.57;99500.75;4897008;29;20053;-78
2022/04/05 08:02:46;;;;;;;13.90;8.57;;;;;;;10.31;54.65;99500.41;4897622;29;20045;-77
2022/04/05 08:05:16;;;;;;;13.65;8.25;;;;;;;10.56;55.08;99497.69;4897558;29;20103;-77
2022/04/05 08:07:46;;;;;;;13.82;8.68;;;;;;;10.65;54.95;99495.34;4897791;29;20379;-77
2022/04/05 08:10:15;;;;;;;17.48;9.57;;;;;;;10.78;54.14;99499.66;4900124;29;20051;-75
2022/04/05 08:12:47;;;;;;;17.45;9.00;;;;;;;10.75;54.12;99480.38;4901587;29;20049;-77
2022/04/05 08:15:17;;;;;;;16.48;9.23;;;;;;;10.78;54.23;99491.66;4901194;29;20044;-77
2022/04/05 08:17:46;;;;;;;16.30;9.15;;;;;;;10.81;54.63;99485.28;4901384;29;20041;-79
2022/04/05 08:20:15;;;;;;;14.23;8.55;;;;;;;11.09;53.76;99484.91;4901040;29;20458;-77
2022/04/05 08:22:44;;;;;;;16.15;8.68;;;;;;;11.12;53.64;99489.19;4901290;29;20414;-78
2022/04/05 08:25:15;;;;;;;17.38;9.30;;;;;;;11.27;53.62;99493.38;4900825;29;20052;-77
2022/04/05 08:27:46;;;;;;;15.52;8.88;;;;;;;11.32;53.56;99493.03;4901007;29;20410;-77
2022/04/05 08:30:17;;;;;;;15.75;9.40;;;;;;;11.18;53.29;99494.06;4900633;29;20052;-77
2022/04/05 08:32:47;;;;;;;16.05;9.45;;;;;;;11.19;53.00;99493.06;4900967;29;20064;-77
2022/04/05 08:35:17;;;;;;;13.70;7.38;;;;;;;11.23;51.38;99485.72;4884446;29;20065;-78
2022/04/05 08:37:47;;;;;;;13.13;6.75;;;;;;;11.36;51.54;99490.00;4900737;29;20041;-78
2022/04/05 08:40:16;;;;;;;9.82;6.53;;;;;;;11.48;49.20;99493.56;4900693;29;20120;-79
2022/04/05 08:42:49;;;;;;;9.82;7.20;;;;;;;11.57;49.83;99490.19;4900730;29;20049;-77
2022/04/05 08:45:19;;;;;;;11.88;8.05;;;;;;;11.62;49.82;99482.69;4900641;29;20065;-77
2022/04/05 08:47:53;;;;;;;12.77;8.35;;;;;;;11.56;49.75;99487.63;4900659;29;20179;-77
2022/04/05 08:50:24;;;;;;;11.70;7.18;;;;;;;11.63;49.70;99488.88;4900224;29;20048;-77
2022/04/05 08:52:55;;;;;;;11.68;8.40;;;;;;;11.57;50.71;99492.00;4899694;29;20045;-77
2022/04/05 08:55:24;;;;;;;14.70;7.68;;;;;;;11.53;50.13;99498.56;4899677;29;20052;-76
2022/04/05 08:57:54;;;;;;;14.52;8.02;;;;;;;11.45;51.65;99491.13;4899981;29;20052;-77
2022/04/05 09:00:24;;;;;;;12.40;7.22;;;;;;;11.70;50.48;99482.09;4883219;29;20493;-76
2022/04/05 09:02:57;;;;;;;11.20;7.47;;;;;;;11.70;49.75;99474.09;4900080;29;20052;-78
2022/04/05 09:05:31;;;;;;;12.02;7.30;;;;;;;11.63;49.12;99470.19;4900082;29;20073;-77
2022/04/05 09:08:14;;;;;;;10.02;6.57;;;;;;;11.66;47.87;99472.59;4883408;29;20096;-77
2022/04/05 09:10:45;;;;;;;10.35;6.30;;;;;;;11.78;47.46;99463.66;4900443;29;20414;-77
2022/04/05 09:13:21;;;;;;;10.90;5.80;;;;;;;11.56;47.56;99485.81;4900348;29;20049;-77
2022/04/05 09:15:52;;;;;;;8.02;5.82;;;;;;;11.53;48.16;99488.72;4883471;29;20498;-76
2022/04/05 09:18:39;;;;;;;10.18;5.82;;;;;;;11.55;46.58;99483.28;4900013;29;20143;-76
2022/04/05 09:21:09;;;;;;;9.25;5.03;;;;;;;11.43;46.29;99477.91;4882744;29;20052;-78
2022/04/05 09:23:41;;;;;;;8.70;4.82;;;;;;;11.25;46.79;99475.75;4900098;29;20040;-77
2022/04/05 09:26:11;;;;;;;7.90;4.90;;;;;;;11.25;47.62;99476.63;4899899;29;20127;-77
2022/04/05 09:28:43;;;;;;;12.20;5.57;;;;;;;11.23;47.62;99470.53;4899994;29;20077;-78
2022/04/05 09:31:14;;;;;;;10.57;6.05;;;;;;;11.28;48.20;99467.50;4900050;29;20079;-75
2022/04/05 09:34:04;;;;;;;10.45;5.53;;;;;;;11.06;48.31;99469.13;4900055;29;20056;-77
2022/04/05 09:36:34;;;;;;;10.68;6.05;;;;;;;11.03;48.83;99473.84;4899688;29;20469;-77
2022/04/05 09:39:20;;;;;;;11.18;5.88;;;;;;;10.92;49.66;99472.00;4900262;29;20045;-76
2022/04/05 09:41:52;;;;;;;10.20;6.22;;;;;;;10.83;50.48;99470.00;4883673;29;20459;-78
2022/04/05 09:44:29;;;;;;;14.20;6.45;;;;;;;10.80;51.46;99476.38;4899577;29;20455;-76
2022/04/05 09:47:04;;;;;;;11.25;6.35;;;;;;;10.85;50.87;99468.91;4899838;29;20059;-76
2022/04/05 09:49:34;;;;;;;13.82;7.03;;;;;;;10.93;50.97;99468.34;4899526;29;20391;-78
2022/04/05 09:52:03;;;;;;;10.95;6.45;;;;;;;10.85;51.06;99471.56;4899772;29;20049;-75
2022/04/05 09:54:35;;;;;;;12.38;6.40;;;;;;;11.02;51.27;99466.81;4899354;29;20100;-78
2022/04/05 09:57:06;;;;;;;13.00;6.78;;;;;;;11.01;52.13;99462.44;4899855;29;20044;-76
2022/04/05 09:59:41;;;;;;;12.23;6.28;;;;;;;11.14;51.78;99465.91;4899163;29;20439;-77
2022/04/05 10:02:13;;;;;;;13.15;5.88;;;;;;;11.25;51.77;99467.75;4899965;29;20144;-79
2022/04/05 10:05:00;;;;;;;12.48;6.40;;;;;;;11.18;51.87;99470.03;4899327;29;20119;-75
2022/04/05 10:07:29;;;;;;;10.98;5.82;;;;;;;11.31;51.57;99470.81;4899397;29;20049;-78
2022/04/05 10:10:00;;;;;;;13.85;6.38;;;;;;;11.22;51.79;99479.53;4899417;29;20132;-77
2022/04/05 10:12:28;;;;;;;10.88;6.43;;;;;;;11.24;51.90;99466.91;4899166;29;20108;-77
2022/04/05 10:14:59;;;;;;;8.07;5.18;;;;;;;11.25;50.68;99481.97;4899240;29;20115;-76
2022/04/05 10:17:29;;;;;;;10.75;5.97;;;;;;;11.29;50.52;99475.44;4899052;29;20076;-78
2022/04/05 10:19:58;;;;;;;9.82;5.43;;;;;;;11.46;50.14;99485.66;4899196;29;20076;-77
2022/04/05 10:22:27;;;;;;;12.20;6.15;;;;;;;11.47;50.25;99479.34;4898133;29;20506;-77
2022/04/05 10:24:55;;;;;;;7.65;5.50;;;;;;;11.56;50.40;99479.63;4899135;29;20079;-77
2022/04/05 10:27:25;;;;;;;11.30;5.78;;;;;;;11.54;51.77;99473.56;4898956;29;20127;-78
2022/04/05 10:30:04;;;;;;;13.70;6.78;;;;;;;11.53;52.11;99479.88;4900012;29;20044;-77
2022/04/05 10:32:47;;;;;;;10.38;6.50;;;;;;;11.61;53.00;99480.13;4899530;29;20115;-78
2022/04/05 10:35:20;;;;;;;10.30;6.80;;;;;;;12.06;52.28;99469.53;4899375;29;20072;-78
2022/04/05 10:37:49;;;;;;;11.50;7.00;;;;;;;11.98;51.91;99467.50;4899764;29;20060;-79
2022/04/05 10:40:20;;;;;;;12.57;6.72;;;;;;;12.30;51.12;99463.13;4899235;29;20406;-77
2022/04/05 10:42:52;;;;;;;10.45;6.63;;;;;;;12.79;50.51;99469.00;4899057;29;20084;-78
2022/04/05 10:45:25;;;;;;;7.78;5.38;;;;;;;12.80;48.10;99457.31;4898884;29;20052;-76
2022/04/05 10:48:01;;;;;;;;;;;;;;;12.62;47.90;99462.34;4898927;29;20414;-77
2022/04/05 10:51:30;;;;;;;9.07;5.40;;;;;;;12.79;48.10;99452.94;4898541;29;19932;-77
2022/04/05 10:54:22;;;;;;;7.75;4.15;;;;;;;12.40;47.21;99441.00;4898744;29;20054;-76
2022/04/05 10:57:16;;;;;;;6.43;4.00;;;;;;;12.41;47.48;99448.88;4899399;29;20210;-78
2022/04/05 10:59:49;;;;;;;7.80;4.93;;;;;;;12.62;47.18;99440.94;4899778;29;20044;-77
2022/04/05 11:02:36;;;;;;;7.25;3.72;;;;;;;12.72;47.28;99454.41;4899264;29;20478;-78
2022/04/05 11:05:37;;;;;;;5.13;3.03;;;;;;;12.40;46.94;99452.53;4899078;29;20051;-78
2022/04/05 11:08:20;;;;;;;5.38;3.42;;;;;;;12.54;47.48;99451.41;4898809;29;20509;-77
2022/04/05 11:10:54;;;;;;;6.75;3.72;;;;;;;12.30;47.77;99452.41;4898692;29;20040;-77
2022/04/05 11:13:40;;;;;;;7.53;3.45;;;;;;;12.47;48.11;99466.28;4898396;29;20064;-76
2022/04/05 11:16:12;;;;;;;3.50;2.28;;;;;;;12.26;48.12;99452.81;4898716;29;20064;-76
2022/04/05 11:18:44;;;;;;;4.28;2.38;;;;;;;12.19;48.16;99449.75;4881817;29;20472;-76
2022/04/05 11:21:12;;;;;;;3.90;2.58;;;;;;;12.18;48.47;99447.22;4898831;29;20045;-78
2022/04/05 11:23:49;;;;;;;3.92;2.80;;;;;;;12.37;48.26;99458.13;4898673;29;20087;-77
2022/04/05 11:26:29;;;;;;;4.82;2.78;;;;;;;12.44;47.64;99443.28;4898017;29;20467;-78
2022/04/05 11:28:59;;;;;;;4.60;2.42;;;;;;;12.46;47.58;99446.69;4898273;29;20048;-76
2022/04/05 11:31:29;;;;;;;7.88;3.00;;;;;;;12.50;48.21;99447.28;4898021;29;20075;-75
2022/04/05 11:34:00;;;;;;;6.50;2.53;;;;;;;12.48;48.15;99450.09;4898448;29;20414;-77
2022/04/05 11:36:29;;;;;;;5.60;2.40;;;;;;;12.09;49.16;99466.66;4897769;29;20131;-78
2022/04/05 11:38:58;;;;;;;4.75;1.98;;;;;;;12.03;49.86;99471.50;4897974;29;20072;-78
2022/04/05 11:41:28;;;;;;;4.75;2.60;;;;;;;12.01;50.40;99460.06;4897911;29;20044;-78
2022/04/05 11:44:00;;;;;;;3.30;1.92;;;;;;;12.09;50.46;99459.47;4897677;29;20060;-76